sensor_id;sensor_type;location;lat;lon;timestamp;P1;durP1;ratioP1;P2;durP2;ratioP2
69401;SDS011;56589;51.992;5.924;2023-06-22T00:00:46;5.72;;;1.95;;
69401;SDS011;56589;51.992;5.924;2023-06-22T00:03:13;3.85;;;2.38;;
69401;SDS011;56589;51.992;5.924;2023-06-22T00:05:42;3.92;;;2.50;;
69401;SDS011;56589;51.992;5.924;2023-06-22T00:08:08;3.67;;;2.28;;
69401;SDS011;56589;51.992;5.924;2023-06-22T00:10:34;5.70;;;2.60;;
69401;SDS011;56589;51.992;5.924;2023-06-22T00:12:59;4.70;;;2.80;;
69401;SDS011;56589;51.992;5.924;2023-06-22T00:15:25;5.28;;;3.10;;
69401;SDS011;56589;51.992;5.924;2023-06-22T00:17:52;7.05;;;3.00;;
69401;SDS011;56589;51.992;5.924;2023-06-22T00:20:18;4.13;;;3.05;;
69401;SDS011;56589;51.992;5.924;2023-06-22T00:22:46;4.10;;;2.80;;
69401;SDS011;56589;51.992;5.924;2023-06-22T00:25:12;4.53;;;2.58;;
69401;SDS011;56589;51.992;5.924;2023-06-22T00:27:37;5.30;;;3.10;;
69401;SDS011;56589;51.992;5.924;2023-06-22T00:30:04;5.50;;;3.00;;
69401;SDS011;56589;51.992;5.924;2023-06-22T00:32:31;5.78;;;2.90;;
69401;SDS011;56589;51.992;5.924;2023-06-22T00:34:57;5.78;;;3.10;;
69401;SDS011;56589;51.992;5.924;2023-06-22T00:37:22;4.15;;;2.78;;
69401;SDS011;56589;51.992;5.924;2023-06-22T00:39:51;4.60;;;2.80;;
69401;SDS011;56589;51.992;5.924;2023-06-22T00:42:17;4.93;;;3.35;;
69401;SDS011;56589;51.992;5.924;2023-06-22T00:44:42;5.97;;;3.28;;
69401;SDS011;56589;51.992;5.924;2023-06-22T00:47:08;4.85;;;3.03;;
69401;SDS011;56589;51.992;5.924;2023-06-22T00:49:34;5.65;;;2.95;;
69401;SDS011;56589;51.992;5.924;2023-06-22T00:52:00;5.28;;;2.90;;
69401;SDS011;56589;51.992;5.924;2023-06-22T00:54:27;4.78;;;3.00;;
69401;SDS011;56589;51.992;5.924;2023-06-22T00:56:55;6.32;;;2.83;;
69401;SDS011;56589;51.992;5.924;2023-06-22T00:59:23;6.45;;;3.10;;
69401;SDS011;56589;51.992;5.924;2023-06-22T01:01:50;3.15;;;2.85;;
69401;SDS011;56589;51.992;5.924;2023-06-22T01:04:15;4.40;;;2.85;;
69401;SDS011;56589;51.992;5.924;2023-06-22T01:06:44;5.13;;;2.85;;
69401;SDS011;56589;51.992;5.924;2023-06-22T01:09:26;5.88;;;3.40;;
69401;SDS011;56589;51.992;5.924;2023-06-22T01:12:04;5.72;;;2.65;;
69401;SDS011;56589;51.992;5.924;2023-06-22T01:14:35;4.75;;;2.70;;
69401;SDS011;56589;51.992;5.924;2023-06-22T01:17:12;5.40;;;3.25;;
69401;SDS011;56589;51.992;5.924;2023-06-22T01:19:43;6.20;;;3.60;;
69401;SDS011;56589;51.992;5.924;2023-06-22T01:22:11;7.95;;;2.92;;
69401;SDS011;56589;51.992;5.924;2023-06-22T01:24:47;4.93;;;3.30;;
69401;SDS011;56589;51.992;5.924;2023-06-22T01:27:39;5.57;;;2.90;;
69401;SDS011;56589;51.992;5.924;2023-06-22T01:30:24;5.88;;;3.10;;
69401;SDS011;56589;51.992;5.924;2023-06-22T01:32:51;6.60;;;3.50;;
69401;SDS011;56589;51.992;5.924;2023-06-22T01:35:20;5.25;;;2.95;;
69401;SDS011;56589;51.992;5.924;2023-06-22T01:37:47;5.25;;;2.85;;
69401;SDS011;56589;51.992;5.924;2023-06-22T01:40:15;5.57;;;3.05;;
69401;SDS011;56589;51.992;5.924;2023-06-22T01:42:42;6.15;;;3.63;;
69401;SDS011;56589;51.992;5.924;2023-06-22T01:45:09;6.47;;;4.32;;
69401;SDS011;56589;51.992;5.924;2023-06-22T01:47:40;8.10;;;4.15;;
69401;SDS011;56589;51.992;5.924;2023-06-22T01:50:07;10.45;;;4.40;;
69401;SDS011;56589;51.992;5.924;2023-06-22T01:52:34;5.95;;;3.58;;
69401;SDS011;56589;51.992;5.924;2023-06-22T01:55:00;8.95;;;3.95;;
69401;SDS011;56589;51.992;5.924;2023-06-22T01:57:26;5.88;;;3.97;;
69401;SDS011;56589;51.992;5.924;2023-06-22T01:59:55;6.93;;;4.18;;
69401;SDS011;56589;51.992;5.924;2023-06-22T02:02:27;7.70;;;4.03;;
69401;SDS011;56589;51.992;5.924;2023-06-22T02:05:03;7.30;;;4.22;;
69401;SDS011;56589;51.992;5.924;2023-06-22T02:07:34;6.10;;;4.07;;
69401;SDS011;56589;51.992;5.924;2023-06-22T02:10:11;6.38;;;3.80;;
69401;SDS011;56589;51.992;5.924;2023-06-22T02:12:43;7.30;;;4.10;;
69401;SDS011;56589;51.992;5.924;2023-06-22T02:15:11;6.28;;;3.80;;
69401;SDS011;56589;51.992;5.924;2023-06-22T02:17:38;6.95;;;3.75;;
69401;SDS011;56589;51.992;5.924;2023-06-22T02:20:07;7.70;;;4.03;;
69401;SDS011;56589;51.992;5.924;2023-06-22T02:22:38;6.00;;;4.05;;
69401;SDS011;56589;51.992;5.924;2023-06-22T02:25:04;7.75;;;3.42;;
69401;SDS011;56589;51.992;5.924;2023-06-22T02:27:31;6.97;;;4.60;;
69401;SDS011;56589;51.992;5.924;2023-06-22T02:29:56;7.38;;;4.20;;
69401;SDS011;56589;51.992;5.924;2023-06-22T02:32:22;6.35;;;4.47;;
69401;SDS011;56589;51.992;5.924;2023-06-22T02:34:48;5.18;;;3.88;;
69401;SDS011;56589;51.992;5.924;2023-06-22T02:37:17;9.68;;;5.18;;
69401;SDS011;56589;51.992;5.924;2023-06-22T02:39:43;7.55;;;5.07;;
69401;SDS011;56589;51.992;5.924;2023-06-22T02:42:09;12.05;;;5.60;;
69401;SDS011;56589;51.992;5.924;2023-06-22T02:44:34;8.38;;;4.88;;
69401;SDS011;56589;51.992;5.924;2023-06-22T02:47:00;9.68;;;5.30;;
69401;SDS011;56589;51.992;5.924;2023-06-22T02:49:26;7.35;;;5.00;;
69401;SDS011;56589;51.992;5.924;2023-06-22T02:51:52;8.75;;;5.82;;
69401;SDS011;56589;51.992;5.924;2023-06-22T02:54:21;8.20;;;5.63;;
69401;SDS011;56589;51.992;5.924;2023-06-22T02:56:46;8.38;;;5.90;;
69401;SDS011;56589;51.992;5.924;2023-06-22T02:59:12;7.72;;;5.30;;
69401;SDS011;56589;51.992;5.924;2023-06-22T03:01:38;9.68;;;6.47;;
69401;SDS011;56589;51.992;5.924;2023-06-22T03:04:05;10.82;;;7.20;;
69401;SDS011;56589;51.992;5.924;2023-06-22T03:06:31;11.07;;;7.13;;
69401;SDS011;56589;51.992;5.924;2023-06-22T03:08:59;12.43;;;7.55;;
69401;SDS011;56589;51.992;5.924;2023-06-22T03:11:29;11.85;;;9.00;;
69401;SDS011;56589;51.992;5.924;2023-06-22T03:13:55;14.68;;;9.52;;
69401;SDS011;56589;51.992;5.924;2023-06-22T03:16:22;13.73;;;9.48;;
69401;SDS011;56589;51.992;5.924;2023-06-22T03:18:47;13.80;;;9.30;;
69401;SDS011;56589;51.992;5.924;2023-06-22T03:21:13;16.85;;;10.05;;
69401;SDS011;56589;51.992;5.924;2023-06-22T03:23:39;12.77;;;9.47;;
69401;SDS011;56589;51.992;5.924;2023-06-22T03:26:05;17.20;;;11.10;;
69401;SDS011;56589;51.992;5.924;2023-06-22T03:28:33;16.80;;;10.40;;
69401;SDS011;56589;51.992;5.924;2023-06-22T03:30:59;13.23;;;9.80;;
69401;SDS011;56589;51.992;5.924;2023-06-22T03:33:25;14.80;;;10.43;;
69401;SDS011;56589;51.992;5.924;2023-06-22T03:35:51;14.35;;;10.20;;
69401;SDS011;56589;51.992;5.924;2023-06-22T03:38:17;13.85;;;9.35;;
69401;SDS011;56589;51.992;5.924;2023-06-22T03:40:43;16.25;;;10.27;;
69401;SDS011;56589;51.992;5.924;2023-06-22T03:43:09;14.57;;;10.18;;
69401;SDS011;56589;51.992;5.924;2023-06-22T03:45:38;15.18;;;9.98;;
69401;SDS011;56589;51.992;5.924;2023-06-22T03:48:04;13.27;;;9.60;;
69401;SDS011;56589;51.992;5.924;2023-06-22T03:50:30;14.50;;;10.20;;
69401;SDS011;56589;51.992;5.924;2023-06-22T03:52:55;15.48;;;10.98;;
69401;SDS011;56589;51.992;5.924;2023-06-22T03:55:21;14.45;;;10.82;;
69401;SDS011;56589;51.992;5.924;2023-06-22T03:57:47;17.38;;;11.75;;
69401;SDS011;56589;51.992;5.924;2023-06-22T04:00:14;17.80;;;12.20;;
69401;SDS011;56589;51.992;5.924;2023-06-22T04:02:43;14.00;;;11.35;;
69401;SDS011;56589;51.992;5.924;2023-06-22T04:05:09;17.08;;;12.10;;
69401;SDS011;56589;51.992;5.924;2023-06-22T04:07:35;18.48;;;13.35;;
69401;SDS011;56589;51.992;5.924;2023-06-22T04:10:01;18.30;;;12.60;;
69401;SDS011;56589;51.992;5.924;2023-06-22T04:12:27;18.92;;;13.35;;
69401;SDS011;56589;51.992;5.924;2023-06-22T04:14:52;21.63;;;14.65;;
69401;SDS011;56589;51.992;5.924;2023-06-22T04:17:18;19.88;;;13.65;;
69401;SDS011;56589;51.992;5.924;2023-06-22T04:19:47;19.23;;;14.95;;
69401;SDS011;56589;51.992;5.924;2023-06-22T04:22:13;19.13;;;14.10;;
69401;SDS011;56589;51.992;5.924;2023-06-22T04:24:38;19.25;;;13.98;;
69401;SDS011;56589;51.992;5.924;2023-06-22T04:27:05;22.85;;;15.50;;
69401;SDS011;56589;51.992;5.924;2023-06-22T04:29:31;19.45;;;14.30;;
69401;SDS011;56589;51.992;5.924;2023-06-22T04:31:57;22.23;;;15.63;;
69401;SDS011;56589;51.992;5.924;2023-06-22T04:34:23;21.75;;;14.50;;
69401;SDS011;56589;51.992;5.924;2023-06-22T04:36:51;18.33;;;14.68;;
69401;SDS011;56589;51.992;5.924;2023-06-22T04:39:17;19.80;;;15.23;;
69401;SDS011;56589;51.992;5.924;2023-06-22T04:41:43;21.20;;;15.35;;
69401;SDS011;56589;51.992;5.924;2023-06-22T04:44:10;18.33;;;14.90;;
69401;SDS011;56589;51.992;5.924;2023-06-22T04:46:36;19.33;;;14.25;;
69401;SDS011;56589;51.992;5.924;2023-06-22T04:49:02;21.58;;;14.73;;
69401;SDS011;56589;51.992;5.924;2023-06-22T04:51:29;18.67;;;14.45;;
69401;SDS011;56589;51.992;5.924;2023-06-22T04:53:58;18.48;;;13.60;;
69401;SDS011;56589;51.992;5.924;2023-06-22T04:56:23;19.75;;;14.30;;
69401;SDS011;56589;51.992;5.924;2023-06-22T04:58:49;21.77;;;14.50;;
69401;SDS011;56589;51.992;5.924;2023-06-22T05:01:15;19.02;;;13.88;;
69401;SDS011;56589;51.992;5.924;2023-06-22T05:03:41;21.42;;;14.50;;
69401;SDS011;56589;51.992;5.924;2023-06-22T05:06:07;19.42;;;13.98;;
69401;SDS011;56589;51.992;5.924;2023-06-22T05:08:33;16.20;;;13.52;;
69401;SDS011;56589;51.992;5.924;2023-06-22T05:11:01;17.85;;;13.68;;
69401;SDS011;56589;51.992;5.924;2023-06-22T05:13:27;15.02;;;12.18;;
69401;SDS011;56589;51.992;5.924;2023-06-22T05:15:53;16.23;;;12.63;;
69401;SDS011;56589;51.992;5.924;2023-06-22T05:18:18;15.23;;;11.90;;
69401;SDS011;56589;51.992;5.924;2023-06-22T05:20:44;15.70;;;12.32;;
69401;SDS011;56589;51.992;5.924;2023-06-22T05:23:10;17.08;;;11.95;;
69401;SDS011;56589;51.992;5.924;2023-06-22T05:25:36;19.55;;;12.52;;
69401;SDS011;56589;51.992;5.924;2023-06-22T05:28:05;17.70;;;12.30;;
69401;SDS011;56589;51.992;5.924;2023-06-22T05:30:30;17.08;;;12.27;;
69401;SDS011;56589;51.992;5.924;2023-06-22T05:32:56;15.40;;;11.48;;
69401;SDS011;56589;51.992;5.924;2023-06-22T05:35:22;14.93;;;11.43;;
69401;SDS011;56589;51.992;5.924;2023-06-22T05:37:48;16.67;;;11.40;;
69401;SDS011;56589;51.992;5.924;2023-06-22T05:40:14;16.17;;;11.88;;
69401;SDS011;56589;51.992;5.924;2023-06-22T05:42:39;14.20;;;11.18;;
69401;SDS011;56589;51.992;5.924;2023-06-22T05:45:08;14.10;;;11.07;;
69401;SDS011;56589;51.992;5.924;2023-06-22T05:47:35;15.10;;;11.02;;
69401;SDS011;56589;51.992;5.924;2023-06-22T05:50:00;13.43;;;10.23;;
69401;SDS011;56589;51.992;5.924;2023-06-22T05:52:26;13.65;;;10.18;;
69401;SDS011;56589;51.992;5.924;2023-06-22T05:54:52;13.13;;;10.40;;
69401;SDS011;56589;51.992;5.924;2023-06-22T05:57:18;16.23;;;10.30;;
69401;SDS011;56589;51.992;5.924;2023-06-22T05:59:44;13.48;;;9.82;;
69401;SDS011;56589;51.992;5.924;2023-06-22T06:02:12;12.38;;;8.77;;
69401;SDS011;56589;51.992;5.924;2023-06-22T06:04:38;12.35;;;9.57;;
69401;SDS011;56589;51.992;5.924;2023-06-22T06:07:04;17.60;;;9.52;;
69401;SDS011;56589;51.992;5.924;2023-06-22T06:09:30;12.57;;;8.88;;
69401;SDS011;56589;51.992;5.924;2023-06-22T06:11:56;14.55;;;10.32;;
69401;SDS011;56589;51.992;5.924;2023-06-22T06:14:22;11.90;;;8.88;;
69401;SDS011;56589;51.992;5.924;2023-06-22T06:16:48;11.13;;;8.68;;
69401;SDS011;56589;51.992;5.924;2023-06-22T06:19:16;9.63;;;8.45;;
69401;SDS011;56589;51.992;5.924;2023-06-22T06:21:42;11.13;;;8.70;;
69401;SDS011;56589;51.992;5.924;2023-06-22T06:24:08;12.63;;;8.52;;
69401;SDS011;56589;51.992;5.924;2023-06-22T06:26:34;10.23;;;8.07;;
69401;SDS011;56589;51.992;5.924;2023-06-22T06:29:00;10.95;;;8.60;;
69401;SDS011;56589;51.992;5.924;2023-06-22T06:31:26;11.02;;;8.02;;
69401;SDS011;56589;51.992;5.924;2023-06-22T06:33:52;12.50;;;8.63;;
69401;SDS011;56589;51.992;5.924;2023-06-22T06:36:20;10.95;;;8.23;;
69401;SDS011;56589;51.992;5.924;2023-06-22T06:38:46;10.95;;;8.60;;
69401;SDS011;56589;51.992;5.924;2023-06-22T06:41:12;10.10;;;8.25;;
69401;SDS011;56589;51.992;5.924;2023-06-22T06:43:38;12.88;;;8.75;;
69401;SDS011;56589;51.992;5.924;2023-06-22T06:46:04;10.00;;;8.02;;
69401;SDS011;56589;51.992;5.924;2023-06-22T06:48:30;10.40;;;8.35;;
69401;SDS011;56589;51.992;5.924;2023-06-22T06:50:56;10.05;;;7.70;;
69401;SDS011;56589;51.992;5.924;2023-06-22T06:53:24;9.05;;;6.70;;
69401;SDS011;56589;51.992;5.924;2023-06-22T06:55:50;9.85;;;7.45;;
69401;SDS011;56589;51.992;5.924;2023-06-22T06:58:16;9.98;;;7.60;;
69401;SDS011;56589;51.992;5.924;2023-06-22T07:00:42;8.30;;;6.85;;
69401;SDS011;56589;51.992;5.924;2023-06-22T07:03:08;11.55;;;7.85;;
69401;SDS011;56589;51.992;5.924;2023-06-22T07:05:34;9.27;;;6.97;;
69401;SDS011;56589;51.992;5.924;2023-06-22T07:08:00;9.43;;;7.47;;
69401;SDS011;56589;51.992;5.924;2023-06-22T07:10:29;10.77;;;7.30;;
69401;SDS011;56589;51.992;5.924;2023-06-22T07:12:55;9.80;;;7.35;;
69401;SDS011;56589;51.992;5.924;2023-06-22T07:15:21;9.75;;;6.78;;
69401;SDS011;56589;51.992;5.924;2023-06-22T07:17:47;9.00;;;7.03;;
69401;SDS011;56589;51.992;5.924;2023-06-22T07:20:12;13.13;;;7.32;;
69401;SDS011;56589;51.992;5.924;2023-06-22T07:22:39;9.70;;;6.55;;
69401;SDS011;56589;51.992;5.924;2023-06-22T07:25:08;9.75;;;7.25;;
69401;SDS011;56589;51.992;5.924;2023-06-22T07:27:37;8.73;;;6.75;;
69401;SDS011;56589;51.992;5.924;2023-06-22T07:30:04;10.93;;;7.43;;
69401;SDS011;56589;51.992;5.924;2023-06-22T07:32:32;10.07;;;6.47;;
69401;SDS011;56589;51.992;5.924;2023-06-22T07:34:57;10.55;;;7.35;;
69401;SDS011;56589;51.992;5.924;2023-06-22T07:37:23;7.80;;;6.45;;
69401;SDS011;56589;51.992;5.924;2023-06-22T07:39:50;9.70;;;6.93;;
69401;SDS011;56589;51.992;5.924;2023-06-22T07:42:16;11.13;;;7.15;;
69401;SDS011;56589;51.992;5.924;2023-06-22T07:44:44;7.55;;;5.88;;
69401;SDS011;56589;51.992;5.924;2023-06-22T07:47:10;11.00;;;6.43;;
69401;SDS011;56589;51.992;5.924;2023-06-22T07:49:36;9.65;;;6.07;;
69401;SDS011;56589;51.992;5.924;2023-06-22T07:52:02;9.07;;;5.68;;
69401;SDS011;56589;51.992;5.924;2023-06-22T07:54:29;9.88;;;5.93;;
69401;SDS011;56589;51.992;5.924;2023-06-22T07:56:55;10.35;;;6.40;;
69401;SDS011;56589;51.992;5.924;2023-06-22T07:59:21;9.32;;;6.05;;
69401;SDS011;56589;51.992;5.924;2023-06-22T08:01:49;8.75;;;6.70;;
69401;SDS011;56589;51.992;5.924;2023-06-22T08:04:15;9.43;;;6.20;;
69401;SDS011;56589;51.992;5.924;2023-06-22T08:06:41;7.88;;;6.30;;
69401;SDS011;56589;51.992;5.924;2023-06-22T08:09:07;7.53;;;5.88;;
69401;SDS011;56589;51.992;5.924;2023-06-22T08:11:33;8.88;;;6.55;;
69401;SDS011;56589;51.992;5.924;2023-06-22T08:13:58;7.88;;;6.28;;
69401;SDS011;56589;51.992;5.924;2023-06-22T08:16:24;8.35;;;5.88;;
69401;SDS011;56589;51.992;5.924;2023-06-22T08:18:53;8.00;;;6.30;;
69401;SDS011;56589;51.992;5.924;2023-06-22T08:21:19;9.27;;;6.18;;
69401;SDS011;56589;51.992;5.924;2023-06-22T08:23:45;10.18;;;5.28;;
69401;SDS011;56589;51.992;5.924;2023-06-22T08:26:11;7.72;;;5.85;;
69401;SDS011;56589;51.992;5.924;2023-06-22T08:28:36;10.82;;;6.68;;
69401;SDS011;56589;51.992;5.924;2023-06-22T08:31:02;9.57;;;6.50;;
69401;SDS011;56589;51.992;5.924;2023-06-22T08:33:28;11.57;;;6.50;;
69401;SDS011;56589;51.992;5.924;2023-06-22T08:35:57;9.73;;;5.70;;
69401;SDS011;56589;51.992;5.924;2023-06-22T08:38:24;7.88;;;5.85;;
69401;SDS011;56589;51.992;5.924;2023-06-22T08:40:50;9.70;;;5.85;;
69401;SDS011;56589;51.992;5.924;2023-06-22T08:43:16;7.13;;;5.45;;
69401;SDS011;56589;51.992;5.924;2023-06-22T08:45:41;8.40;;;5.60;;
69401;SDS011;56589;51.992;5.924;2023-06-22T08:48:07;10.52;;;5.95;;
69401;SDS011;56589;51.992;5.924;2023-06-22T08:50:33;7.47;;;5.32;;
69401;SDS011;56589;51.992;5.924;2023-06-22T08:53:02;6.43;;;5.40;;
69401;SDS011;56589;51.992;5.924;2023-06-22T08:55:27;9.02;;;5.70;;
69401;SDS011;56589;51.992;5.924;2023-06-22T08:57:53;7.18;;;4.55;;
69401;SDS011;56589;51.992;5.924;2023-06-22T09:00:19;8.48;;;5.18;;
69401;SDS011;56589;51.992;5.924;2023-06-22T09:02:46;7.00;;;4.80;;
69401;SDS011;56589;51.992;5.924;2023-06-22T09:05:13;7.18;;;5.55;;
69401;SDS011;56589;51.992;5.924;2023-06-22T09:07:40;7.68;;;5.15;;
69401;SDS011;56589;51.992;5.924;2023-06-22T09:10:09;5.95;;;4.55;;
69401;SDS011;56589;51.992;5.924;2023-06-22T09:12:35;7.70;;;4.55;;
69401;SDS011;56589;51.992;5.924;2023-06-22T09:15:01;5.00;;;4.20;;
69401;SDS011;56589;51.992;5.924;2023-06-22T09:17:27;8.10;;;4.63;;
69401;SDS011;56589;51.992;5.924;2023-06-22T09:19:53;6.18;;;4.80;;
69401;SDS011;56589;51.992;5.924;2023-06-22T09:22:19;8.25;;;4.78;;
69401;SDS011;56589;51.992;5.924;2023-06-22T09:24:45;5.97;;;5.00;;
69401;SDS011;56589;51.992;5.924;2023-06-22T09:27:14;10.93;;;4.72;;
69401;SDS011;56589;51.992;5.924;2023-06-22T09:29:40;7.25;;;3.83;;
69401;SDS011;56589;51.992;5.924;2023-06-22T09:32:06;9.60;;;4.85;;
69401;SDS011;56589;51.992;5.924;2023-06-22T09:34:32;5.57;;;4.20;;
69401;SDS011;56589;51.992;5.924;2023-06-22T09:36:58;6.57;;;4.07;;
69401;SDS011;56589;51.992;5.924;2023-06-22T09:39:24;4.88;;;3.63;;
69401;SDS011;56589;51.992;5.924;2023-06-22T09:41:50;5.78;;;4.20;;
69401;SDS011;56589;51.992;5.924;2023-06-22T09:44:18;6.15;;;4.18;;
69401;SDS011;56589;51.992;5.924;2023-06-22T09:46:44;7.55;;;4.00;;
69401;SDS011;56589;51.992;5.924;2023-06-22T09:49:10;5.03;;;3.55;;
69401;SDS011;56589;51.992;5.924;2023-06-22T09:51:36;4.95;;;3.88;;
69401;SDS011;56589;51.992;5.924;2023-06-22T09:54:01;5.20;;;3.60;;
69401;SDS011;56589;51.992;5.924;2023-06-22T09:56:27;6.97;;;4.05;;
69401;SDS011;56589;51.992;5.924;2023-06-22T09:58:53;5.13;;;3.92;;
69401;SDS011;56589;51.992;5.924;2023-06-22T10:01:21;7.65;;;4.45;;
69401;SDS011;56589;51.992;5.924;2023-06-22T10:03:47;6.13;;;4.25;;
69401;SDS011;56589;51.992;5.924;2023-06-22T10:06:13;7.55;;;3.97;;
69401;SDS011;56589;51.992;5.924;2023-06-22T10:08:39;4.72;;;3.50;;
69401;SDS011;56589;51.992;5.924;2023-06-22T10:11:05;5.70;;;3.95;;
69401;SDS011;56589;51.992;5.924;2023-06-22T10:13:31;5.63;;;3.97;;
69401;SDS011;56589;51.992;5.924;2023-06-22T10:15:57;7.00;;;3.30;;
69401;SDS011;56589;51.992;5.924;2023-06-22T10:18:26;6.28;;;3.47;;
69401;SDS011;56589;51.992;5.924;2023-06-22T10:20:52;6.32;;;3.80;;
69401;SDS011;56589;51.992;5.924;2023-06-22T10:23:18;6.97;;;3.50;;
69401;SDS011;56589;51.992;5.924;2023-06-22T10:25:45;5.55;;;3.38;;
69401;SDS011;56589;51.992;5.924;2023-06-22T10:28:11;6.97;;;3.72;;
69401;SDS011;56589;51.992;5.924;2023-06-22T10:30:37;4.78;;;3.85;;
69401;SDS011;56589;51.992;5.924;2023-06-22T10:33:03;5.32;;;3.72;;
69401;SDS011;56589;51.992;5.924;2023-06-22T10:35:31;7.45;;;3.50;;
69401;SDS011;56589;51.992;5.924;2023-06-22T10:37:57;5.07;;;3.45;;
69401;SDS011;56589;51.992;5.924;2023-06-22T10:40:23;4.80;;;3.75;;
69401;SDS011;56589;51.992;5.924;2023-06-22T10:42:49;8.52;;;4.40;;
69401;SDS011;56589;51.992;5.924;2023-06-22T10:45:15;4.35;;;3.47;;
69401;SDS011;56589;51.992;5.924;2023-06-22T10:47:41;4.75;;;3.88;;
69401;SDS011;56589;51.992;5.924;2023-06-22T10:50:07;6.00;;;3.50;;
69401;SDS011;56589;51.992;5.924;2023-06-22T10:52:37;5.05;;;3.95;;
69401;SDS011;56589;51.992;5.924;2023-06-22T10:55:03;6.93;;;4.05;;
69401;SDS011;56589;51.992;5.924;2023-06-22T10:57:30;9.70;;;4.50;;
69401;SDS011;56589;51.992;5.924;2023-06-22T10:59:55;6.75;;;4.40;;
69401;SDS011;56589;51.992;5.924;2023-06-22T11:02:21;5.47;;;4.05;;
69401;SDS011;56589;51.992;5.924;2023-06-22T11:04:47;7.38;;;4.55;;
69401;SDS011;56589;51.992;5.924;2023-06-22T11:07:13;5.65;;;4.55;;
69401;SDS011;56589;51.992;5.924;2023-06-22T11:09:43;5.07;;;4.22;;
69401;SDS011;56589;51.992;5.924;2023-06-22T11:12:09;6.28;;;4.18;;
69401;SDS011;56589;51.992;5.924;2023-06-22T11:14:35;4.68;;;4.18;;
69401;SDS011;56589;51.992;5.924;2023-06-22T11:17:01;7.75;;;4.97;;
69401;SDS011;56589;51.992;5.924;2023-06-22T11:19:27;8.18;;;5.00;;
69401;SDS011;56589;51.992;5.924;2023-06-22T11:21:53;7.95;;;5.10;;
69401;SDS011;56589;51.992;5.924;2023-06-22T11:24:18;6.47;;;4.97;;
69401;SDS011;56589;51.992;5.924;2023-06-22T11:26:47;7.43;;;4.57;;
69401;SDS011;56589;51.992;5.924;2023-06-22T11:29:13;6.28;;;4.70;;
69401;SDS011;56589;51.992;5.924;2023-06-22T11:31:38;7.65;;;5.05;;
69401;SDS011;56589;51.992;5.924;2023-06-22T11:34:04;8.15;;;5.95;;
69401;SDS011;56589;51.992;5.924;2023-06-22T11:36:30;7.97;;;5.55;;
69401;SDS011;56589;51.992;5.924;2023-06-22T11:38:56;10.57;;;5.43;;
69401;SDS011;56589;51.992;5.924;2023-06-22T11:41:22;8.02;;;5.90;;
69401;SDS011;56589;51.992;5.924;2023-06-22T11:43:50;7.53;;;6.22;;
69401;SDS011;56589;51.992;5.924;2023-06-22T11:46:16;7.97;;;5.95;;
69401;SDS011;56589;51.992;5.924;2023-06-22T11:48:42;9.68;;;5.80;;
69401;SDS011;56589;51.992;5.924;2023-06-22T11:51:08;9.88;;;6.70;;
69401;SDS011;56589;51.992;5.924;2023-06-22T11:53:34;7.82;;;6.32;;
69401;SDS011;56589;51.992;5.924;2023-06-22T11:56:00;8.48;;;6.63;;
69401;SDS011;56589;51.992;5.924;2023-06-22T11:58:26;10.82;;;7.53;;
69401;SDS011;56589;51.992;5.924;2023-06-22T12:00:55;9.77;;;7.68;;
69401;SDS011;56589;51.992;5.924;2023-06-22T12:03:21;12.45;;;6.55;;
69401;SDS011;56589;51.992;5.924;2023-06-22T12:05:47;9.93;;;7.50;;
69401;SDS011;56589;51.992;5.924;2023-06-22T12:08:14;10.93;;;8.00;;
69401;SDS011;56589;51.992;5.924;2023-06-22T12:10:40;11.38;;;8.98;;
69401;SDS011;56589;51.992;5.924;2023-06-22T12:13:06;16.70;;;9.73;;
69401;SDS011;56589;51.992;5.924;2023-06-22T12:15:32;15.38;;;10.40;;
69401;SDS011;56589;51.992;5.924;2023-06-22T12:18:00;14.00;;;10.60;;
69401;SDS011;56589;51.992;5.924;2023-06-22T12:20:26;13.70;;;10.02;;
69401;SDS011;56589;51.992;5.924;2023-06-22T12:22:52;14.73;;;11.15;;
69401;SDS011;56589;51.992;5.924;2023-06-22T12:25:18;12.70;;;10.75;;
69401;SDS011;56589;51.992;5.924;2023-06-22T12:27:43;13.13;;;10.27;;
69401;SDS011;56589;51.992;5.924;2023-06-22T12:30:09;15.20;;;11.43;;
69401;SDS011;56589;51.992;5.924;2023-06-22T12:32:35;15.27;;;11.63;;
69401;SDS011;56589;51.992;5.924;2023-06-22T12:35:04;14.98;;;11.50;;
69401;SDS011;56589;51.992;5.924;2023-06-22T12:37:31;15.40;;;12.55;;
69401;SDS011;56589;51.992;5.924;2023-06-22T12:39:57;22.70;;;12.85;;
69401;SDS011;56589;51.992;5.924;2023-06-22T12:42:23;15.98;;;12.88;;
69401;SDS011;56589;51.992;5.924;2023-06-22T12:44:49;19.33;;;14.15;;
69401;SDS011;56589;51.992;5.924;2023-06-22T12:47:15;16.65;;;12.88;;
69401;SDS011;56589;51.992;5.924;2023-06-22T12:49:41;17.65;;;13.60;;
69401;SDS011;56589;51.992;5.924;2023-06-22T12:52:11;18.80;;;14.52;;
69401;SDS011;56589;51.992;5.924;2023-06-22T12:54:36;22.65;;;14.35;;
69401;SDS011;56589;51.992;5.924;2023-06-22T12:57:03;18.75;;;14.85;;
69401;SDS011;56589;51.992;5.924;2023-06-22T12:59:29;16.70;;;14.38;;
69401;SDS011;56589;51.992;5.924;2023-06-22T13:01:55;18.73;;;14.27;;
69401;SDS011;56589;51.992;5.924;2023-06-22T13:04:21;15.30;;;13.20;;
69401;SDS011;56589;51.992;5.924;2023-06-22T13:06:47;17.25;;;14.10;;
69401;SDS011;56589;51.992;5.924;2023-06-22T13:09:17;16.92;;;13.85;;
69401;SDS011;56589;51.992;5.924;2023-06-22T13:11:44;14.93;;;13.32;;
69401;SDS011;56589;51.992;5.924;2023-06-22T13:14:10;19.52;;;14.43;;
69401;SDS011;56589;51.992;5.924;2023-06-22T13:16:36;18.83;;;13.63;;
69401;SDS011;56589;51.992;5.924;2023-06-22T13:19:02;15.65;;;13.95;;
69401;SDS011;56589;51.992;5.924;2023-06-22T13:21:30;22.23;;;14.93;;
69401;SDS011;56589;51.992;5.924;2023-06-22T13:23:56;21.23;;;15.05;;
69401;SDS011;56589;51.992;5.924;2023-06-22T13:26:24;21.45;;;15.00;;
69401;SDS011;56589;51.992;5.924;2023-06-22T13:28:50;20.42;;;15.23;;
69401;SDS011;56589;51.992;5.924;2023-06-22T13:31:16;19.88;;;13.90;;
69401;SDS011;56589;51.992;5.924;2023-06-22T13:33:42;23.88;;;14.75;;
69401;SDS011;56589;51.992;5.924;2023-06-22T13:36:08;20.67;;;16.08;;
69401;SDS011;56589;51.992;5.924;2023-06-22T13:38:34;22.08;;;14.80;;
69401;SDS011;56589;51.992;5.924;2023-06-22T13:41:00;25.50;;;16.63;;
69401;SDS011;56589;51.992;5.924;2023-06-22T13:43:29;25.00;;;17.27;;
69401;SDS011;56589;51.992;5.924;2023-06-22T13:45:55;20.67;;;16.23;;
69401;SDS011;56589;51.992;5.924;2023-06-22T13:48:20;20.88;;;16.88;;
69401;SDS011;56589;51.992;5.924;2023-06-22T13:50:46;24.50;;;16.65;;
69401;SDS011;56589;51.992;5.924;2023-06-22T13:53:12;22.88;;;16.98;;
69401;SDS011;56589;51.992;5.924;2023-06-22T13:55:39;21.05;;;17.13;;
69401;SDS011;56589;51.992;5.924;2023-06-22T13:58:05;27.17;;;17.88;;
69401;SDS011;56589;51.992;5.924;2023-06-22T14:00:34;25.30;;;16.83;;
69401;SDS011;56589;51.992;5.924;2023-06-22T14:03:00;24.30;;;17.35;;
69401;SDS011;56589;51.992;5.924;2023-06-22T14:05:26;21.83;;;16.67;;
69401;SDS011;56589;51.992;5.924;2023-06-22T14:07:52;23.77;;;17.02;;
69401;SDS011;56589;51.992;5.924;2023-06-22T14:10:18;19.83;;;16.92;;
69401;SDS011;56589;51.992;5.924;2023-06-22T14:12:44;23.27;;;18.15;;
69401;SDS011;56589;51.992;5.924;2023-06-22T14:15:10;21.25;;;15.55;;
69401;SDS011;56589;51.992;5.924;2023-06-22T14:17:39;24.60;;;17.42;;
69401;SDS011;56589;51.992;5.924;2023-06-22T14:20:05;21.25;;;16.85;;
69401;SDS011;56589;51.992;5.924;2023-06-22T14:22:33;21.38;;;17.45;;
69401;SDS011;56589;51.992;5.924;2023-06-22T14:24:59;21.30;;;16.70;;
69401;SDS011;56589;51.992;5.924;2023-06-22T14:27:25;22.95;;;17.35;;
69401;SDS011;56589;51.992;5.924;2023-06-22T14:29:51;22.75;;;17.13;;
69401;SDS011;56589;51.992;5.924;2023-06-22T14:32:17;24.17;;;17.70;;